Hovedside
METAR-TAF:

METAR-TAF

Lufthavner :

Sogndal lufthamn. Haukåsen

Sogndal, Norge

breddegrad: 61-09N, lengdegrad: 007-08E, høyde over havet: 49 m

Gjeldene værobservasjon

Denne rapporten ble laget for 38 minutter siden, klokken 05:50 UTC
Vind 1 kt fra skiftende retning
Temperatur -4°C
Luftfuktighet 86%
Trykk 1018 hPa
Sikt 10 km eller mer
Brutte skyer i en høyde av 4500 ft

METAR: ENSG 150550Z VRB01KT 9999 BKN045 M04/M06 Q1018 RMK WIND 3806FT 11005KT

Tid: 07:28 (06:28 UTC)


TAF: fraværende

Værobservasjoner og værvarsel for over 4000 flyplasser (METAR- og TAF-rapporter).

Tilgjengelige stasjoner er representert av de røde og gule prikkene på kartet.

Hold musepekeren over prikken for å se navnet på stasjonen.

Klikk så for å se værobservasjoner og -varsler.

For å forandre kartet kan du klikke på den grønne knappen med svart kryss for å zoome inn, på den grønne knappen med strek for å zoome ut, eller på de grønne pilene for å se tilstøtende kart.


METAR-TAF: